Date,TemperatureHighF,TemperatureAvgF,TemperatureLowF,DewpointHighF,DewpointAvgF,DewpointLowF,HumidityHigh,HumidityAvg,HumidityLow,PressureMaxIn,PressureMinIn,WindSpeedMaxMPH,WindSpeedAvgMPH,GustSpeedMaxMPH,PrecipitationSumIn
2013-1-1,48.7,43.4,38.7,43.5,31.9,25.9,83,64,43,30.15,29.59,9,4,12,0.08
2013-1-2,52.2,44.1,35.6,47.7,38.8,28.1,90,81,68,30.42,30.12,7,2,10,0.00
2013-1-3,54.1,51.8,50.0,46.9,45.1,42.7,87,78,70,30.71,30.42,9,4,12,0.00
2013-1-4,51.8,50.0,47.5,42.9,39.8,35.6,80,68,57,30.74,30.69,9,4,13,0.00
2013-1-5,52.5,49.0,45.1,47.7,42.7,39.6,90,79,66,30.71,30.60,7,2,10,0.00
2013-1-6,48.0,46.0,43.7,44.9,43.2,39.8,93,90,82,30.63,30.51,4,1,6,0.00
2013-1-7,48.9,47.1,45.3,42.8,41.6,40.3,87,81,74,30.51,30.33,4,2,6,0.00
2013-1-8,53.2,50.3,47.3,44.9,42.0,39.2,86,73,61,30.36,30.27,6,2,8,0.00
2013-1-9,51.6,45.2,35.1,46.4,37.6,29.0,91,76,46,30.27,30.18,7,2,10,0.04
2013-1-10,39.0,36.0,32.5,34.3,31.0,28.9,89,82,73,30.15,30.01,5,2,6,0.00
2013-1-11,48.6,37.4,32.4,37.2,31.5,28.4,88,80,59,30.18,30.06,4,0,4,0.00
2013-1-12,41.7,38.9,34.5,34.5,28.3,18.0,88,68,39,30.09,29.95,7,3,13,0.12
2013-1-13,39.9,36.1,33.4,27.3,21.4,18.8,63,55,49,30.24,30.06,8,4,11,0.00
2013-1-14,37.8,34.6,32.4,33.9,27.6,20.3,89,75,58,30.21,29.71,10,2,15,0.13
2013-1-15,40.5,34.4,28.8,28.5,25.5,22.5,78,70,55,29.98,29.71,10,3,11,0.00
2013-1-16,36.0,30.3,27.5,27.9,24.7,22.0,88,80,61,30.15,29.95,4,2,6,0.00
2013-1-17,38.1,32.4,24.6,29.4,22.9,19.6,85,69,52,30.18,30.01,3,0,4,0.00
2013-1-18,35.6,31.7,29.7,25.0,22.1,19.1,77,68,51,30.01,29.53,6,2,8,0.00
2013-1-19,34.5,32.9,31.6,27.5,24.0,18.9,77,69,58,29.59,29.47,10,3,12,0.00
2013-1-20,33.1,31.5,30.0,28.6,25.0,18.5,86,77,59,29.59,29.36,9,3,12,0.00
2013-1-21,43.0,32.9,27.9,30.4,26.3,21.6,87,77,55,29.62,29.36,4,0,4,0.04
2013-1-22,38.7,33.4,25.0,33.7,24.8,20.0,90,72,50,29.80,29.59,9,2,14,0.08
2013-1-23,37.6,36.3,35.1,28.7,24.8,21.6,72,63,55,29.92,29.77,6,3,11,0.00
2013-1-24,36.7,35.6,34.0,27.4,22.4,17.2,75,59,45,30.27,29.92,6,2,8,0.00
2013-1-25,38.1,34.9,30.2,31.4,22.7,17.2,78,61,51,30.24,29.68,4,1,6,0.04
2013-1-26,47.5,41.8,36.3,40.0,33.8,28.5,89,74,48,29.95,29.65,7,2,9,0.17
2013-1-27,51.1,46.5,39.4,47.2,34.1,24.3,91,64,37,29.74,29.39,14,5,19,0.33
2013-1-28,51.8,44.0,35.6,46.6,35.8,29.5,90,73,55,29.92,29.62,8,3,13,0.09
2013-1-29,57.0,54.4,50.7,50.9,48.1,37.6,91,80,57,29.74,29.62,10,5,15,0.04
2013-1-30,54.3,50.5,45.3,51.3,36.8,26.4,90,62,36,30.15,29.59,16,7,24,0.21
2013-1-31,52.2,48.4,44.8,42.6,33.3,26.5,81,57,39,30.15,29.89,17,6,21,0.08
2013-2-1,47.5,43.1,39.0,38.5,34.0,28.8,85,71,51,29.95,29.53,10,2,12,0.21
2013-2-2,43.9,39.1,32.7,34.1,22.7,16.8,80,52,39,30.36,29.68,14,6,18,0.00
2013-2-3,49.5,41.5,31.6,42.9,31.7,17.1,80,68,53,30.36,30.01,9,3,11,0.00
2013-2-4,51.4,48.0,43.3,42.4,33.2,-99.9,75,58,36,30.06,29.83,12,6,17,0.00
2013-2-5,44.6,40.7,36.5,34.2,24.6,15.5,77,54,32,29.83,29.42,17,6,27,0.12
2013-2-6,44.2,40.5,36.0,34.7,25.8,18.7,76,56,41,30.15,29.44,16,7,22,0.04
2013-2-7,36.1,35.7,35.6,19.3,18.9,18.8,50,50,50,30.18,30.15,7,4,9,0.00
2013-2-26,41.0,39.3,38.8,35.1,32.1,-99.9,85,78,75,30.69,30.66,8,4,11,0.00
2013-2-27,48.9,39.4,36.1,34.5,29.3,23.8,87,69,40,30.69,30.57,9,4,12,0.00
2013-2-28,50.2,41.0,35.4,30.3,27.8,25.5,77,60,41,30.60,30.45,8,4,13,0.00
2013-3-1,45.5,41.1,36.9,38.1,28.3,21.3,89,62,41,30.54,30.42,9,4,12,0.00
2013-3-2,45.9,38.3,31.3,24.1,22.2,21.0,68,52,41,30.51,30.36,7,2,10,0.00
2013-3-3,53.8,39.4,28.9,31.5,26.9,21.8,80,62,36,30.39,30.18,8,1,14,0.00
2013-3-4,54.7,42.3,36.1,30.9,27.4,22.7,75,57,31,30.21,29.83,6,2,10,0.00
2013-3-5,67.1,48.1,34.0,42.5,31.1,-99.9,86,57,27,29.86,29.68,3,1,4,0.00
2013-3-6,49.5,47.9,46.9,34.7,32.9,30.4,60,56,49,29.71,29.62,3,1,5,0.00
2013-3-7,52.2,49.2,48.6,47.0,43.1,-99.9,90,82,74,29.53,29.47,4,1,5,0.00
2013-3-8,51.8,49.6,47.1,48.8,46.8,44.6,92,90,88,29.65,29.47,4,1,6,0.33
2013-3-9,47.1,43.4,38.5,44.6,37.7,28.7,92,81,65,29.80,29.62,7,3,10,0.04
2013-3-10,40.3,37.0,34.2,29.5,25.4,19.8,74,63,54,29.86,29.77,10,5,18,0.00
2013-3-11,34.7,32.2,29.1,21.2,15.2,9.8,59,49,38,29.89,29.83,15,7,21,0.00
2013-3-12,43.2,34.8,28.8,27.3,14.3,6.9,69,44,28,29.95,29.83,15,7,23,0.00
2013-3-13,47.1,38.3,33.1,26.6,21.5,14.6,73,52,29,30.06,29.89,12,5,15,0.00
2013-3-14,50.2,38.0,28.0,32.9,19.5,12.0,87,52,26,30.15,30.01,7,2,8,0.00
2013-3-15,49.8,43.4,37.6,40.0,32.3,16.4,84,66,41,30.04,29.65,7,3,11,0.13
2013-3-16,50.2,44.8,42.4,39.4,36.3,32.6,82,72,56,29.65,29.36,7,3,12,0.15
2013-3-17,46.9,41.1,33.4,39.8,34.1,29.1,86,76,61,29.44,29.27,6,2,8,0.13
2013-3-18,49.1,38.5,30.7,44.9,33.8,27.1,92,83,59,29.47,29.30,5,1,6,0.30
2013-3-19,53.8,41.4,36.9,36.6,31.2,-99.9,86,69,37,29.62,29.44,5,1,8,0.00
2013-3-20,45.9,39.8,36.3,35.7,30.4,-99.9,85,70,52,30.12,29.62,7,2,10,0.00
2013-3-21,48.2,40.6,34.0,29.4,25.6,22.0,76,56,39,30.15,30.01,7,2,12,0.04
2013-3-22,42.8,39.3,36.9,30.9,27.4,24.7,77,63,51,30.04,29.83,10,5,17,0.17
2013-3-23,35.4,34.8,34.5,31.5,29.3,-99.9,86,82,78,29.98,29.89,9,4,13,0.07
2013-3-24,34.9,33.5,32.2,29.8,21.8,14.1,82,63,42,30.06,29.95,9,4,15,0.00
2013-3-25,35.4,34.3,33.3,18.3,15.5,-99.9,51,46,41,30.06,30.01,11,4,16,0.00
2013-3-26,36.5,34.8,33.6,17.8,15.3,13.9,50,44,40,30.06,30.01,8,4,15,0.00
2013-4-2,36.9,36.0,34.9,15.7,14.8,14.3,44,41,40,30.15,30.04,9,6,12,0.00
2013-4-3,42.8,37.8,33.6,25.4,17.7,12.9,69,45,31,30.18,30.06,10,5,16,0.00
2013-4-4,39.2,36.4,33.6,31.4,21.3,14.4,81,55,39,30.09,30.01,13,6,15,0.00
2013-4-5,48.9,40.3,35.2,26.0,19.0,9.5,65,44,22,30.21,30.01,12,7,18,0.00
2013-4-6,58.3,43.1,18.3,28.8,20.5,7.2,77,46,17,30.42,30.18,10,4,12,0.00
2013-4-7,58.3,43.9,29.8,29.5,17.0,8.5,70,38,14,30.42,30.04,4,1,6,0.00
2013-4-8,52.3,45.0,41.4,27.9,20.2,-99.9,58,40,23,29.71,29.65,6,3,11,0.00
2013-4-9,51.8,43.9,38.7,37.5,32.4,-99.9,81,65,47,29.68,29.47,6,2,15,0.03
2013-4-10,58.1,46.2,37.9,40.9,32.8,29.1,86,62,36,29.83,29.53,6,2,9,0.20
2013-4-11,60.3,48.1,43.0,43.4,40.3,34.0,90,76,42,29.62,29.47,7,2,13,0.17
2013-4-12,55.9,48.7,44.1,46.5,41.4,35.6,90,77,50,29.86,29.39,8,2,14,0.42
2013-4-13,56.1,49.1,39.0,49.8,42.0,34.0,91,78,46,30.01,29.83,6,2,8,0.21
2013-4-14,71.6,59.6,52.3,51.2,42.2,35.8,92,56,28,30.06,29.95,10,3,15,0.00
2013-4-15,64.8,56.1,49.3,44.3,38.8,34.3,73,54,35,30.18,30.04,8,3,13,0.00
2013-4-16,67.1,55.9,48.9,46.3,36.6,26.9,82,51,23,30.18,30.01,10,4,15,0.00
2013-4-17,69.3,57.6,48.0,50.3,42.0,36.4,85,59,33,30.18,29.86,8,3,14,0.00
2013-4-18,61.0,52.5,46.9,40.3,30.2,20.3,65,43,26,30.18,29.89,13,6,17,0.08
2013-4-19,58.8,50.0,43.3,37.1,30.5,22.6,68,49,26,30.60,30.18,10,4,13,0.00
2013-4-20,65.5,49.6,37.2,37.4,24.2,12.1,81,43,13,30.66,30.48,4,1,7,0.00
2013-4-21,64.4,48.6,34.0,34.9,25.2,16.8,76,43,19,30.48,30.12,8,2,11,0.00
2013-4-22,62.1,51.8,43.7,42.7,35.4,26.6,81,56,27,30.15,30.06,9,2,12,0.00
2013-4-23,73.4,60.2,49.8,46.6,39.1,32.1,84,50,23,30.33,30.06,7,3,10,0.00
2013-4-24,71.1,59.8,48.4,47.5,41.6,38.0,77,53,34,30.36,30.30,9,2,10,0.00
2013-4-25,76.5,62.0,51.6,51.7,42.5,33.3,85,54,22,30.33,30.06,9,3,12,0.00
2013-4-26,57.9,50.7,43.7,41.4,29.6,13.5,81,48,20,30.12,29.95,11,4,17,0.12
2013-4-27,57.2,45.7,39.0,31.1,27.0,22.1,70,49,29,30.21,29.98,11,4,13,0.00
2013-4-28,57.2,47.1,34.0,35.6,25.3,16.1,78,46,20,30.21,30.01,8,3,11,0.00
2013-4-29,62.6,52.4,46.8,38.7,27.2,19.6,72,41,21,30.27,29.98,9,4,13,0.00
2013-4-30,65.5,51.7,41.4,32.8,26.5,14.3,63,40,16,30.42,30.27,8,3,12,0.00
2013-5-1,69.3,52.3,38.8,36.3,25.1,10.3,75,41,12,30.42,30.24,9,2,15,0.00
2013-5-2,72.1,55.9,41.7,25.1,15.8,4.9,41,24,9,30.36,30.24,8,2,11,0.00
2013-5-3,73.0,56.5,39.9,32.5,26.8,18.5,60,34,14,30.27,30.12,8,2,13,0.00
2013-5-4,66.6,55.3,46.0,47.4,32.6,22.5,68,44,20,30.21,30.09,11,4,23,0.00
2013-5-5,70.7,58.5,44.4,41.1,36.5,30.4,73,45,30,30.30,30.21,6,2,8,0.00
2013-5-6,82.6,65.0,53.1,43.5,36.0,25.5,62,38,15,30.27,30.12,4,1,6,0.00
2013-5-7,79.7,63.3,47.5,42.7,32.5,27.1,67,35,17,30.15,29.95,6,1,8,0.00
2013-5-8,67.6,59.4,55.2,52.6,41.9,33.4,81,54,34,29.95,29.77,8,2,12,0.00
2013-5-13,56.3,49.8,48.0,30.9,25.6,-99.9,51,41,29,29.95,29.89,12,4,13,0.00
2013-5-14,57.9,49.7,45.5,46.2,36.6,28.0,88,62,34,29.92,29.33,7,2,10,0.28
2013-5-15,47.1,45.1,43.7,38.0,32.8,29.4,72,62,56,29.36,29.24,10,5,16,0.00
2013-5-16,63.9,46.9,38.3,45.1,33.9,-99.9,85,65,28,29.65,29.59,3,0,3,0.00
2013-5-18,63.9,57.6,53.2,34.8,31.7,-99.9,48,38,33,29.89,29.83,6,1,6,0.00
2013-5-19,68.7,58.3,48.4,41.3,36.9,33.4,70,47,31,29.98,29.89,8,2,12,0.00
2013-5-20,63.9,58.6,52.7,51.5,47.7,39.7,79,67,54,29.98,29.92,10,4,12,0.00
2013-5-21,63.9,57.3,54.0,49.5,42.1,36.3,69,57,39,30.15,29.98,10,4,14,0.00
2013-5-22,61.0,53.6,47.8,43.8,34.5,24.3,75,49,28,30.18,30.06,9,3,13,0.00
2013-5-23,55.0,48.0,43.0,30.4,26.3,18.6,58,43,27,30.09,29.95,14,4,20,0.00
2013-5-24,52.3,45.2,42.1,42.2,34.7,29.5,77,67,51,30.12,29.71,8,3,12,0.33
2013-5-25,64.8,52.4,41.5,39.7,30.7,22.6,86,48,23,30.30,30.12,9,4,12,0.00
2013-5-26,73.4,58.3,42.1,36.1,26.2,18.5,67,33,13,30.24,30.04,8,2,11,0.00
2013-5-27,70.3,57.2,43.9,37.6,27.9,16.9,67,35,15,30.06,29.71,8,2,11,0.00
2013-5-28,57.9,52.8,49.8,52.1,42.3,30.4,84,69,40,29.74,29.56,4,0,6,0.57
2013-5-29,57.9,52.0,46.2,50.0,43.5,-99.9,83,74,51,29.86,29.65,8,2,9,0.00
2013-5-30,61.2,55.5,52.0,50.5,46.4,41.7,91,72,50,30.09,29.83,10,4,12,0.16
2013-5-31,74.5,61.7,52.5,46.3,42.8,37.9,75,53,30,30.21,30.06,8,4,10,0.00
2013-6-1,67.8,58.5,51.3,42.4,34.0,28.3,58,41,24,30.39,30.18,10,4,13,0.00
2013-6-2,72.5,59.3,48.7,40.9,30.9,24.4,67,37,19,30.51,30.36,8,3,12,0.00
2013-6-3,74.5,59.7,47.5,41.5,32.3,24.6,73,39,18,30.57,30.48,9,2,12,0.00
2013-6-4,59.7,51.3,46.6,34.3,29.7,26.4,56,44,34,30.51,30.42,6,2,9,0.00
2013-6-5,54.7,32.8,54.7,40.6,-15.6,-99.9,59,35,59,30.24,30.24,4,3,4,0.00
2013-6-6,79.3,61.8,47.8,42.4,35.9,-99.9,71,42,21,30.30,30.18,7,3,10,0.00
2013-6-7,73.2,60.6,50.0,42.7,37.0,32.0,69,43,25,30.33,30.24,6,3,13,0.03
2013-6-8,71.4,58.5,48.7,38.9,35.3,30.0,67,44,24,30.30,30.12,10,4,13,0.00
2013-6-9,62.2,56.1,51.6,39.5,35.5,31.5,62,46,35,30.15,30.04,8,3,10,0.00
2013-6-10,67.6,56.9,51.8,36.9,33.5,30.4,49,42,30,30.09,30.01,4,1,6,0.00
2013-6-11,66.4,58.3,48.7,56.2,43.8,-99.9,72,59,47,30.06,29.98,5,1,6,0.00
2013-6-12,63.9,60.3,57.7,55.8,50.7,-99.9,84,72,50,30.01,29.89,7,3,10,0.06
2013-6-13,68.2,60.1,54.5,53.2,39.2,-99.9,82,48,35,30.12,29.89,13,5,21,0.00
2013-6-14,73.8,59.8,47.8,45.5,38.2,19.0,74,48,14,30.18,29.89,6,2,10,0.00
2013-6-15,65.8,58.5,52.5,50.7,41.0,29.2,82,54,27,29.98,29.77,12,4,15,0.16
2013-6-16,73.4,60.3,52.7,44.3,39.7,33.4,72,49,26,30.06,29.98,6,2,7,0.00
2013-6-17,75.4,63.8,56.5,43.2,37.7,-99.9,58,40,23,30.06,29.98,6,2,10,0.00
2013-6-18,75.2,65.3,56.7,52.7,46.5,39.9,70,51,34,30.06,29.98,6,1,8,0.00
2013-6-19,85.6,70.9,60.3,58.5,50.1,40.2,80,52,22,30.06,29.95,6,1,10,0.00
2013-6-20,76.6,67.5,61.2,55.1,50.2,44.3,72,55,38,30.04,29.83,6,1,7,0.00
2013-6-21,75.6,64.9,58.1,54.3,49.2,43.8,77,59,35,29.95,29.83,7,3,11,0.00
2013-6-22,67.1,59.3,53.4,54.2,45.7,40.2,88,62,40,29.95,29.71,11,4,15,0.08
2013-6-23,66.2,60.5,55.6,50.2,43.2,37.6,81,55,37,29.98,29.71,10,5,15,0.00
2013-6-24,65.5,60.2,55.9,36.1,30.4,-99.9,46,34,27,30.39,30.21,8,3,13,0.00
2013-6-25,77.9,62.7,51.3,39.0,32.2,19.6,56,35,13,30.48,30.36,7,2,10,0.00
2013-6-26,75.2,63.8,50.9,42.9,36.4,30.3,65,39,21,30.54,30.42,7,2,10,0.00
2013-6-27,74.3,61.3,54.1,50.0,39.5,28.3,80,47,24,30.48,30.24,8,3,10,0.00
2013-6-28,70.9,62.3,54.7,56.8,52.3,48.5,85,71,51,30.27,30.12,8,2,10,0.03
2013-6-29,76.3,65.3,56.7,53.1,37.3,30.7,72,39,21,30.33,30.12,10,4,12,0.00
2013-6-30,84.0,70.9,59.4,53.5,45.4,35.8,76,45,19,30.33,30.12,9,3,14,0.00
2013-7-2,66.2,62.0,59.5,49.1,41.0,-99.9,68,47,34,30.04,29.74,6,2,8,0.00
2013-7-3,73.8,63.7,58.1,57.4,48.3,40.1,89,60,34,30.09,29.65,8,3,11,0.03
2013-7-4,79.0,65.8,54.9,53.7,46.7,-99.9,80,53,32,30.33,30.06,7,3,14,0.00
2013-7-5,87.8,70.4,55.4,49.0,41.2,-99.9,75,41,13,30.48,30.30,4,1,6,0.00
2013-7-6,91.8,73.4,56.3,50.0,41.1,24.5,65,36,10,30.51,30.36,4,1,6,0.00
2013-7-7,92.5,76.1,61.9,54.7,43.1,24.6,70,37,9,30.60,30.48,7,2,10,0.00
2013-7-8,88.0,72.8,60.3,48.2,41.9,35.8,61,36,19,30.60,30.48,9,3,12,0.00
2013-7-9,87.1,76.4,62.8,44.0,24.8,-99.9,50,17,8,30.51,30.30,8,3,11,0.00
2013-7-10,79.2,67.3,55.8,44.7,40.0,35.0,53,38,24,30.39,30.30,11,4,15,0.00
2013-7-11,80.8,64.2,53.6,41.7,35.8,30.7,57,37,20,30.39,30.27,9,3,10,0.00
2013-7-12,85.3,67.5,54.5,44.6,41.0,36.8,61,41,20,30.39,30.24,5,2,6,0.00
2013-7-13,93.2,76.1,60.1,52.8,45.8,-99.9,68,39,17,30.33,30.24,7,2,10,0.00
2013-7-14,89.1,76.3,63.7,52.2,44.2,34.3,61,36,16,30.33,30.21,8,2,13,0.00
2013-7-20,79.9,72.0,41.3,47.5,45.3,31.5,50,39,30,30.30,29.97,7,3,10,0.00
2013-7-21,88.7,72.3,63.1,52.7,47.0,40.1,63,44,20,30.24,30.06,6,2,7,0.00
2013-7-22,98.4,77.9,41.3,61.4,48.5,30.8,82,42,11,30.09,29.95,5,1,8,0.54
2013-7-23,90.7,75.6,41.3,63.9,52.7,31.5,68,46,28,30.01,29.92,4,1,6,0.25
2013-7-24,86.0,71.4,41.3,53.7,46.3,31.5,73,44,20,30.04,29.95,8,2,13,0.87
2013-7-25,83.8,71.1,62.2,61.1,50.5,37.6,84,52,21,30.01,29.92,6,2,8,0.46
2013-7-26,89.2,71.8,58.1,53.8,43.7,36.1,73,41,18,30.01,29.89,5,1,7,0.00
2013-7-27,91.9,70.4,58.8,59.1,45.2,24.9,84,46,9,29.92,29.62,4,1,8,0.25
2013-7-28,81.3,68.3,59.0,58.4,48.7,40.6,86,54,27,29.86,29.65,7,3,13,0.41
2013-7-29,77.7,66.6,41.3,58.4,50.3,31.5,86,60,31,30.04,29.83,9,2,11,1.74
2013-7-30,75.0,64.6,59.5,63.5,54.6,31.5,86,71,43,30.06,29.92,7,2,10,0.26
2013-7-31,78.4,67.7,41.3,58.1,53.1,31.5,76,60,38,30.06,29.97,7,2,10,2.00
2013-8-1,97.2,78.5,61.7,61.2,51.2,31.0,83,45,11,30.01,29.71,5,2,9,0.00
2013-8-2,84.0,71.0,63.3,58.0,49.6,34.9,73,50,21,29.86,29.77,7,2,8,0.00
2013-8-3,80.4,67.8,59.0,55.5,46.6,36.4,83,51,22,30.15,29.86,7,3,13,0.03
2013-8-4,81.7,67.3,57.0,56.3,46.2,37.7,83,51,23,30.18,30.09,7,2,12,0.03
2013-8-5,79.5,66.7,60.3,58.9,50.7,41.4,85,59,31,30.09,29.83,6,1,8,0.21
2013-8-6,79.3,65.3,41.3,55.4,42.5,31.5,87,50,21,30.12,29.95,6,1,8,2.24
2013-8-7,79.5,66.6,58.6,51.8,39.9,31.3,73,41,21,30.09,29.95,9,2,10,0.00
2013-8-8,83.7,67.0,53.2,46.4,39.0,27.0,66,39,14,30.21,30.09,6,1,8,0.00
2013-8-9,76.6,67.2,60.3,60.7,44.9,32.2,85,49,21,30.27,30.06,8,3,12,0.03
2013-8-10,76.5,65.3,56.3,42.4,36.1,29.9,55,35,21,30.30,30.18,10,2,10,0.03
2013-8-11,78.3,67.1,41.3,50.0,39.9,30.3,64,39,18,30.21,29.97,8,3,13,2.27
2013-8-12,74.3,63.6,56.8,45.9,37.1,27.2,64,40,18,30.15,30.06,9,3,13,0.00
2013-8-13,72.9,60.7,52.7,49.8,40.7,29.6,78,51,22,30.30,30.15,7,2,11,0.00
2013-8-14,78.8,63.5,51.4,56.7,47.8,38.1,86,62,25,30.30,30.21,8,1,10,0.05
2013-8-15,77.7,67.9,61.9,60.1,54.4,47.8,88,65,38,30.21,30.09,8,2,11,0.05
2013-8-16,78.6,66.7,62.1,59.5,55.1,50.5,81,68,40,30.09,29.98,6,2,10,0.04
2013-8-17,71.6,63.5,56.8,57.3,51.3,43.9,88,67,38,30.06,29.80,8,3,13,0.04
2013-8-18,77.7,67.1,60.3,59.3,48.8,35.9,86,56,23,29.98,29.77,8,3,12,0.00
2013-8-19,77.4,65.2,54.0,48.1,38.4,30.6,73,41,21,30.39,29.95,9,3,10,0.00
2013-8-20,83.1,67.4,54.1,47.9,38.2,27.0,67,38,14,30.45,30.36,6,1,6,0.00
2013-8-21,86.4,69.0,54.5,51.4,41.6,29.4,73,42,16,30.39,30.18,6,1,9,0.00
2013-8-22,75.0,66.3,61.7,61.1,56.8,47.6,85,72,54,30.21,30.12,3,0,5,0.11
2013-8-23,85.1,70.9,61.3,60.8,51.4,39.4,88,55,23,30.12,29.89,5,2,7,0.00
2013-8-24,68.4,63.8,57.2,60.6,56.2,50.3,89,77,56,29.95,29.86,7,2,10,0.79
2013-8-25,80.4,65.0,54.9,58.5,51.5,43.9,91,66,31,30.09,29.89,8,3,10,0.25
2013-8-26,83.1,68.5,59.7,56.5,46.6,33.0,82,51,20,30.15,30.06,7,2,10,0.00
2013-8-27,80.6,65.1,54.9,57.6,42.4,30.5,89,49,21,30.18,30.09,7,2,8,0.00
2013-8-28,82.4,66.5,54.9,51.9,41.6,30.4,84,45,17,30.30,30.18,5,1,8,0.00
2013-8-29,79.3,67.1,57.6,53.1,44.7,36.1,77,47,22,30.30,30.18,8,2,10,0.00
2013-8-30,81.3,67.8,58.5,57.6,49.4,41.0,80,55,26,30.24,30.09,9,2,13,0.00
2013-8-31,73.2,63.9,41.3,55.8,36.5,22.7,80,41,16,30.45,29.97,11,4,14,3.60
2013-9-1,73.8,61.0,49.8,43.8,36.2,31.3,61,41,22,30.51,30.39,7,3,13,3.60
2013-9-2,82.8,66.8,54.1,49.2,45.1,41.2,74,49,25,30.45,30.33,6,3,9,3.60
2013-9-3,84.6,68.8,41.3,57.6,49.1,31.5,83,53,24,30.42,29.97,3,0,4,3.60
2013-9-4,89.8,71.0,41.3,60.2,48.5,31.5,85,51,18,30.33,29.97,3,1,4,3.60
2013-9-5,92.5,72.8,59.7,60.2,48.3,34.0,83,49,18,30.06,29.80,8,1,9,0.00
2013-9-6,67.1,60.9,54.5,56.7,46.6,37.8,80,60,38,29.92,29.77,8,2,10,0.09
2013-9-7,70.5,58.9,51.8,50.9,41.3,35.2,80,55,28,30.12,29.89,7,1,8,0.05
2013-9-8,66.6,54.7,47.7,51.4,42.4,34.3,83,65,33,30.15,30.09,6,1,8,0.21
2013-9-9,61.7,53.0,47.1,54.6,47.8,42.4,87,83,72,30.15,30.06,4,1,6,0.20
2013-9-10,63.9,55.6,48.4,46.9,41.6,34.2,85,62,35,30.24,30.12,9,4,13,0.00
2013-9-11,64.6,57.7,53.8,51.0,42.8,36.2,85,59,36,30.27,30.18,10,4,12,4.23
2013-9-12,72.7,60.4,55.0,56.0,50.7,45.3,90,73,42,30.21,30.12,4,0,5,0.05
2013-9-13,67.1,62.1,56.7,63.7,58.4,54.5,93,88,79,30.15,29.95,7,1,10,0.98
2013-9-14,58.3,53.1,48.7,54.5,46.2,39.7,93,79,52,30.15,29.95,9,3,13,0.08
2013-9-15,60.4,53.1,42.8,57.7,45.3,31.8,92,77,37,30.18,29.59,8,3,16,0.10
2013-9-16,63.3,53.6,46.6,40.0,32.6,25.5,71,47,27,29.74,29.65,13,4,16,0.00
2013-9-17,58.1,52.9,41.3,55.2,42.5,31.5,90,69,38,29.77,29.42,6,2,8,5.63
2013-9-18,63.9,56.1,50.2,51.2,40.7,32.3,85,59,33,29.95,29.47,8,3,11,0.00
2013-9-19,67.3,54.2,45.1,60.9,45.0,35.7,90,72,46,30.01,29.80,8,2,11,0.06
2013-9-20,71.6,58.6,49.6,46.4,41.7,36.6,83,56,31,30.27,29.95,6,2,8,0.00
2013-9-21,67.8,59.2,50.5,57.8,49.7,42.2,85,72,56,30.39,30.24,5,1,6,0.00
2013-9-22,70.0,63.1,57.2,58.9,55.9,52.2,90,78,57,30.48,30.36,4,1,6,0.00
2013-9-23,70.9,61.6,54.7,60.3,53.8,48.8,91,77,49,30.42,30.18,3,0,4,0.00
2013-9-24,79.7,61.6,50.7,62.2,50.9,46.8,92,71,35,30.21,29.98,4,1,6,0.00
2013-9-25,74.7,64.1,56.3,58.3,51.9,45.8,89,67,38,29.98,29.89,4,1,4,0.00
2013-9-26,73.8,62.2,56.7,52.5,45.2,35.0,78,57,25,30.12,29.95,6,2,10,0.00
2013-9-27,69.4,58.2,50.9,48.0,43.0,37.2,79,59,33,30.12,30.01,5,2,8,0.00
2013-9-28,70.0,60.3,54.0,50.7,45.7,35.5,82,61,35,30.01,29.80,7,2,15,0.00
2013-9-29,71.1,60.8,41.3,49.1,44.8,31.5,71,56,35,29.97,29.77,8,3,10,0.00
2013-9-30,70.7,61.9,56.3,52.0,44.9,36.9,77,56,32,29.83,29.74,6,2,8,0.00
2013-10-7,71.6,63.8,41.3,52.3,47.2,31.5,77,56,38,30.33,29.97,6,1,6,0.00
2013-10-8,70.7,62.2,55.9,57.4,52.1,46.5,91,71,44,30.36,30.27,6,2,8,0.00
2013-10-9,65.8,57.0,47.1,53.5,42.5,29.9,81,60,37,30.30,30.04,10,3,14,0.00
2013-10-10,55.0,49.0,45.3,33.9,29.8,27.0,59,48,36,30.21,30.09,11,6,17,0.00
2013-10-11,57.2,52.9,47.5,51.2,43.4,31.1,88,71,46,30.24,30.04,12,6,20,0.22
2013-10-12,60.3,53.5,47.8,51.6,41.6,32.1,88,66,37,30.21,30.04,11,2,17,0.08
2013-10-13,53.1,50.7,47.8,51.1,46.4,42.7,93,85,78,30.09,29.83,9,3,13,0.45
2013-10-14,54.3,50.0,48.4,46.6,43.9,41.9,91,80,66,29.86,29.77,7,3,10,0.12
2013-10-15,61.2,51.0,45.9,46.2,43.0,39.4,91,75,50,30.04,29.83,5,2,8,0.00
2013-10-16,65.5,50.7,41.5,61.8,45.3,38.0,94,83,48,30.06,29.77,8,2,12,0.18
2013-10-17,67.1,57.9,51.3,51.4,47.1,42.2,87,69,45,30.09,29.89,7,3,10,0.00
2013-10-18,67.3,57.1,50.7,57.7,50.4,46.7,93,79,51,30.12,29.83,4,1,6,0.00
2013-10-19,64.9,58.6,54.0,61.3,53.1,48.5,91,82,67,29.86,29.71,4,1,8,0.03
2013-10-20,64.6,56.9,53.1,54.6,51.9,46.7,93,84,60,29.83,29.71,7,2,11,0.50
2013-10-21,65.3,59.9,54.3,58.3,54.0,31.5,93,82,64,29.97,29.65,7,2,11,1.53
2013-10-22,68.0,61.8,41.3,57.5,54.0,31.5,90,76,38,29.97,29.39,5,2,11,0.29
2013-10-23,65.8,58.0,46.9,55.6,46.7,35.2,92,69,35,29.92,29.30,13,4,17,0.15
2013-10-24,67.1,53.2,42.8,56.4,45.3,39.9,93,77,45,30.04,29.89,4,1,6,0.00
2013-10-25,67.3,60.5,55.6,61.1,52.4,48.7,94,76,54,29.89,29.65,7,2,12,0.04
2013-10-26,64.2,59.4,56.8,55.2,51.1,47.8,85,74,58,29.77,29.56,10,4,12,0.00
2013-10-27,63.5,57.0,41.3,54.4,46.0,31.5,89,69,38,29.97,29.39,12,5,17,0.09